Terminal Aerodrome Forecast
Issued by NWS Charleston, WV

Current Version | Previous Version | Graphics & Text | Print | Product List | Glossary On
Versions: 1 2 3 4 5 6 7 8 9 10 11 12 13 14 15 16 17 18 19 20 21 22 23
000
FTUS41 KRLX 161100 RRA
TAFHTS
TAF
KHTS 161153Z 1612/1712 19009KT 4SM BR OVC040
     FM161400 21010G15KT P6SM OVC025
     FM161600 24013G24KT 5SM -SHRA OVC022
     FM161800 25013G21KT P6SM OVC025
     FM162200 24011G19KT P6SM OVC015
     FM170500 25010G16KT P6SM OVC010=

USA.gov is the U.S. government's official web portal to all federal, state and local government web resources and services.